Keego, Alabama
Current Conditions -  °F | °C
As of 4:53 PM on Thursday 27 Nov 2014 (Local Time) from KGZH Reporting Station
Clear Clear  
Wind Chill: 50°   Ceiling: Unl
Heat Index: 50°   Visibility: 10mi
Dew Point: 30°   Wind: 8mph
Humidity: 46%   Direction: 340°NNW
Pressure: 30.39"   Gusts: NA
Location:  31.165°N, 87.0243°W
Report Text: KGZH 272253Z AUTO 34007KT 10SM CLR 10/M01 A3039 RMK AO2 SLP291 T01001011
Loading
Personal Weather Stations






























Interactive Weather Map New forecast layout! Learn more

10-Day Weather Forecast

Advertisements
Track Severe Weather on mobile